Middlebury, VT

8:14 AM EDT on April 28, 2015 (GMT -0400)
Morrisville Stowe State | | Change Station
CLOSE
Current Station
Airport
Location: Morrisville,
Elevation: 732 ft
Nearby Weather Stations

Elev 732 ft 44.53 °N, 72.61 °W | Updated 20 minutes ago

Overcast
Overcast
43 °F
Feels Like 36 °F
N
14
Wind Variable Wind from North
Gusts 21 mph

Today
High -- | Low -- °F
--% Chance of Precip.
Yesterday
High -- | Low -- °F
Precip. -- in
5:48 AM 7:51 PM
Waxing Gibbous, 73% visible
Pressure 29.89 in
Visibility 10.0 miles
Clouds Overcast 3000 ft
Windchill 36 °F
Dew Point 32 °F
Humidity 65%
Rainfall 0.00 in
Snow Depth Not available.
UV 1 out of 12
Pollen 7.20 out of 12
Air Quality Not available.
Flu Activity Regional
METAR KMVL 281154Z AUTO 01012G18KT 10SM OVC030 06/00 A2987 RMK AO2 SLP122 T00610000 10067 20050 51022 TSNO

More Conditions Fewer Conditions

Pressure 29.89 in
Visibility 10.0 miles
Clouds Overcast 3000 ft
Windchill 36 °F
Dew Point 32 °F
Humidity 65%
Rainfall 0.00 in
Snow Depth Not available.
UV 1 out of 12
Pollen 7.20 out of 12
Air Quality Not available.
Flu Activity Regional
METAR KMVL 281154Z AUTO 01012G18KT 10SM OVC030 06/00 A2987 RMK AO2 SLP122 T00610000 10067 20050 51022 TSNO

More Conditions Fewer Conditions

10-Day Weather Forecast

Almanac

Astronomy

Apr. 28, 2015 Rise Set
Actual Time
Civil Twilight
Nautical Twilight
Astronomical Twilight
Moon
Length of Visible Light
Length of Day
Tomorrow will be .
, % of the Moon is Illuminated

Today's Extremes

State Highs State Lows

Community

WunderPhotos

Upload Photos

1,817,615 photos uploaded!

WunderBlogs® & News

Nearby

Air Quality

  Air Quality AQ Index Pollutant
Not available.

Snow Depth

Station Depth Elevation

Earthquake Activity

City Distance Mag. Time & Date
Minimum magnitude displayed is 2.5.

Coastal Water Temperatures

Place Temperature

Stations

Nearby Weather Stations

Station Location Temp. Windchill Dew Point Humidity Wind Precip. Elev Updated Type